sensor_id;sensor_type;location;lat;lon;timestamp;temperature;humidity
76263;DHT22;65080;50.908;6.916;2022-12-18T00:00:15;-2.50;62.00
76263;DHT22;65080;50.908;6.916;2022-12-18T00:02:44;-2.50;62.00
76263;DHT22;65080;50.908;6.916;2022-12-18T00:05:12;-2.50;62.70
76263;DHT22;65080;50.908;6.916;2022-12-18T00:07:40;-2.50;62.00
76263;DHT22;65080;50.908;6.916;2022-12-18T00:10:09;-2.50;62.70
76263;DHT22;65080;50.908;6.916;2022-12-18T00:12:42;-2.60;61.90
76263;DHT22;65080;50.908;6.916;2022-12-18T00:15:10;-2.50;62.00
76263;DHT22;65080;50.908;6.916;2022-12-18T00:17:39;-2.50;62.00
76263;DHT22;65080;50.908;6.916;2022-12-18T00:20:08;-2.50;62.00
76263;DHT22;65080;50.908;6.916;2022-12-18T00:22:37;-2.50;62.00
76263;DHT22;65080;50.908;6.916;2022-12-18T00:25:05;-2.60;61.90
76263;DHT22;65080;50.908;6.916;2022-12-18T00:27:34;-2.60;61.90
76263;DHT22;65080;50.908;6.916;2022-12-18T00:30:05;-2.60;61.80
76263;DHT22;65080;50.908;6.916;2022-12-18T00:32:33;-2.60;61.90
76263;DHT22;65080;50.908;6.916;2022-12-18T00:35:01;-2.50;62.00
76263;DHT22;65080;50.908;6.916;2022-12-18T00:37:30;-2.50;61.90
76263;DHT22;65080;50.908;6.916;2022-12-18T00:39:58;-2.50;61.90
76263;DHT22;65080;50.908;6.916;2022-12-18T00:42:26;-2.50;61.90
76263;DHT22;65080;50.908;6.916;2022-12-18T00:45:13;-2.60;61.70
76263;DHT22;65080;50.908;6.916;2022-12-18T00:47:41;-2.50;61.80
76263;DHT22;65080;50.908;6.916;2022-12-18T00:50:10;-2.60;61.80
76263;DHT22;65080;50.908;6.916;2022-12-18T00:52:38;-2.60;61.80
76263;DHT22;65080;50.908;6.916;2022-12-18T00:55:07;-2.60;61.70
76263;DHT22;65080;50.908;6.916;2022-12-18T00:57:35;-2.60;61.80
76263;DHT22;65080;50.908;6.916;2022-12-18T01:00:06;-2.60;61.90
76263;DHT22;65080;50.908;6.916;2022-12-18T01:02:36;-2.60;61.80
76263;DHT22;65080;50.908;6.916;2022-12-18T01:05:05;-2.60;61.80
76263;DHT22;65080;50.908;6.916;2022-12-18T01:07:33;-2.60;61.70
76263;DHT22;65080;50.908;6.916;2022-12-18T01:10:02;-2.60;61.80
76263;DHT22;65080;50.908;6.916;2022-12-18T01:12:31;-2.60;61.70
76263;DHT22;65080;50.908;6.916;2022-12-18T01:14:59;-2.60;61.70
76263;DHT22;65080;50.908;6.916;2022-12-18T01:17:27;-2.60;61.80
76263;DHT22;65080;50.908;6.916;2022-12-18T01:19:57;-2.60;61.80
76263;DHT22;65080;50.908;6.916;2022-12-18T01:22:25;-2.70;61.70
76263;DHT22;65080;50.908;6.916;2022-12-18T01:24:53;-2.70;61.70
76263;DHT22;65080;50.908;6.916;2022-12-18T01:27:21;-2.70;61.70
76263;DHT22;65080;50.908;6.916;2022-12-18T01:29:50;-2.70;62.00
76263;DHT22;65080;50.908;6.916;2022-12-18T01:32:18;-2.70;61.80
76263;DHT22;65080;50.908;6.916;2022-12-18T01:34:46;-2.80;61.70
76263;DHT22;65080;50.908;6.916;2022-12-18T01:37:16;-2.80;61.80
76263;DHT22;65080;50.908;6.916;2022-12-18T01:39:44;-2.80;61.90
76263;DHT22;65080;50.908;6.916;2022-12-18T01:42:14;-2.80;61.80
76263;DHT22;65080;50.908;6.916;2022-12-18T01:45:05;-2.80;61.80
76263;DHT22;65080;50.908;6.916;2022-12-18T01:47:37;-2.70;61.80
76263;DHT22;65080;50.908;6.916;2022-12-18T01:50:09;-2.70;61.70
76263;DHT22;65080;50.908;6.916;2022-12-18T01:52:41;-2.80;61.60
76263;DHT22;65080;50.908;6.916;2022-12-18T01:55:11;-2.80;61.60
76263;DHT22;65080;50.908;6.916;2022-12-18T01:57:40;-2.80;61.60
76263;DHT22;65080;50.908;6.916;2022-12-18T02:00:11;-2.80;61.60
76263;DHT22;65080;50.908;6.916;2022-12-18T02:02:41;-2.80;61.70
76263;DHT22;65080;50.908;6.916;2022-12-18T02:05:10;-2.90;61.60
76263;DHT22;65080;50.908;6.916;2022-12-18T02:07:45;-2.80;61.70
76263;DHT22;65080;50.908;6.916;2022-12-18T02:10:21;-2.80;61.70
76263;DHT22;65080;50.908;6.916;2022-12-18T02:12:56;-2.90;61.50
76263;DHT22;65080;50.908;6.916;2022-12-18T02:15:36;-2.90;61.50
76263;DHT22;65080;50.908;6.916;2022-12-18T02:18:09;-2.90;61.60
76263;DHT22;65080;50.908;6.916;2022-12-18T02:20:45;-2.90;61.60
76263;DHT22;65080;50.908;6.916;2022-12-18T02:23:29;-2.90;61.60
76263;DHT22;65080;50.908;6.916;2022-12-18T02:26:10;-2.90;61.60
76263;DHT22;65080;50.908;6.916;2022-12-18T02:28:45;-2.90;61.60
76263;DHT22;65080;50.908;6.916;2022-12-18T02:31:17;-2.90;61.60
76263;DHT22;65080;50.908;6.916;2022-12-18T02:33:49;-2.90;61.50
76263;DHT22;65080;50.908;6.916;2022-12-18T02:36:18;-2.90;61.60
76263;DHT22;65080;50.908;6.916;2022-12-18T02:38:49;-2.80;61.70
76263;DHT22;65080;50.908;6.916;2022-12-18T02:41:20;-2.90;61.50
76263;DHT22;65080;50.908;6.916;2022-12-18T02:43:55;-2.80;61.60
76263;DHT22;65080;50.908;6.916;2022-12-18T02:46:28;-2.90;61.50
76263;DHT22;65080;50.908;6.916;2022-12-18T02:49:05;-2.90;61.40
76263;DHT22;65080;50.908;6.916;2022-12-18T02:51:42;-2.90;61.40
76263;DHT22;65080;50.908;6.916;2022-12-18T02:54:21;-2.90;61.50
76263;DHT22;65080;50.908;6.916;2022-12-18T02:56:55;-2.90;61.40
76263;DHT22;65080;50.908;6.916;2022-12-18T02:59:31;-2.90;61.40
76263;DHT22;65080;50.908;6.916;2022-12-18T03:02:07;-2.90;61.40
76263;DHT22;65080;50.908;6.916;2022-12-18T06:43:43;-3.60;61.70
76263;DHT22;65080;50.908;6.916;2022-12-18T06:46:32;-3.60;61.70
76263;DHT22;65080;50.908;6.916;2022-12-18T06:49:07;-3.60;61.70
76263;DHT22;65080;50.908;6.916;2022-12-18T06:51:47;-3.60;61.80
76263;DHT22;65080;50.908;6.916;2022-12-18T06:54:15;-3.70;61.70
76263;DHT22;65080;50.908;6.916;2022-12-18T06:56:46;-3.70;61.70
76263;DHT22;65080;50.908;6.916;2022-12-18T06:59:17;-3.70;62.50
76263;DHT22;65080;50.908;6.916;2022-12-18T07:01:48;-3.70;61.90
76263;DHT22;65080;50.908;6.916;2022-12-18T07:04:18;-3.70;61.90
76263;DHT22;65080;50.908;6.916;2022-12-18T07:06:47;-3.60;61.90
76263;DHT22;65080;50.908;6.916;2022-12-18T07:09:17;-3.70;61.90
76263;DHT22;65080;50.908;6.916;2022-12-18T07:11:46;-3.70;61.90
76263;DHT22;65080;50.908;6.916;2022-12-18T07:14:17;-3.70;61.90
76263;DHT22;65080;50.908;6.916;2022-12-18T07:16:47;-3.70;62.00
76263;DHT22;65080;50.908;6.916;2022-12-18T07:19:16;-3.70;62.00
76263;DHT22;65080;50.908;6.916;2022-12-18T07:21:55;-3.60;62.00
76263;DHT22;65080;50.908;6.916;2022-12-18T07:24:33;-3.60;62.00
76263;DHT22;65080;50.908;6.916;2022-12-18T07:27:02;-3.60;62.00
76263;DHT22;65080;50.908;6.916;2022-12-18T07:29:33;-3.60;62.10
76263;DHT22;65080;50.908;6.916;2022-12-18T07:32:01;-3.60;62.10
76263;DHT22;65080;50.908;6.916;2022-12-18T07:34:39;-3.50;62.40
76263;DHT22;65080;50.908;6.916;2022-12-18T07:37:18;-3.40;62.30
76263;DHT22;65080;50.908;6.916;2022-12-18T07:39:50;-3.40;62.20
76263;DHT22;65080;50.908;6.916;2022-12-18T07:42:21;-3.40;62.20
76263;DHT22;65080;50.908;6.916;2022-12-18T07:45:00;-3.40;62.20
76263;DHT22;65080;50.908;6.916;2022-12-18T07:47:34;-3.40;62.20
76263;DHT22;65080;50.908;6.916;2022-12-18T07:50:05;-3.40;62.30
76263;DHT22;65080;50.908;6.916;2022-12-18T07:52:39;-3.40;62.30
76263;DHT22;65080;50.908;6.916;2022-12-18T07:55:10;-3.40;62.20
76263;DHT22;65080;50.908;6.916;2022-12-18T07:57:38;-3.40;62.20
76263;DHT22;65080;50.908;6.916;2022-12-18T08:00:22;-3.40;62.20
76263;DHT22;65080;50.908;6.916;2022-12-18T08:02:59;-3.40;62.30
76263;DHT22;65080;50.908;6.916;2022-12-18T08:05:28;-3.40;62.20
76263;DHT22;65080;50.908;6.916;2022-12-18T08:08:00;-3.40;62.20
76263;DHT22;65080;50.908;6.916;2022-12-18T08:10:34;-3.40;62.20
76263;DHT22;65080;50.908;6.916;2022-12-18T08:13:10;-3.40;62.20
76263;DHT22;65080;50.908;6.916;2022-12-18T08:15:46;-3.30;62.30
76263;DHT22;65080;50.908;6.916;2022-12-18T08:18:14;-3.30;62.30
76263;DHT22;65080;50.908;6.916;2022-12-18T08:20:42;-3.30;62.20
76263;DHT22;65080;50.908;6.916;2022-12-18T08:23:19;-3.30;62.20
76263;DHT22;65080;50.908;6.916;2022-12-18T08:25:48;-3.30;62.20
76263;DHT22;65080;50.908;6.916;2022-12-18T08:28:19;-3.30;62.20
76263;DHT22;65080;50.908;6.916;2022-12-18T08:30:53;-3.30;62.20
76263;DHT22;65080;50.908;6.916;2022-12-18T08:33:23;-3.30;62.20
76263;DHT22;65080;50.908;6.916;2022-12-18T08:35:51;-3.20;62.30
76263;DHT22;65080;50.908;6.916;2022-12-18T08:38:22;-3.20;62.30
76263;DHT22;65080;50.908;6.916;2022-12-18T08:40:57;-3.20;62.40
76263;DHT22;65080;50.908;6.916;2022-12-18T08:43:27;-3.10;62.50
76263;DHT22;65080;50.908;6.916;2022-12-18T08:46:19;-3.10;62.30
76263;DHT22;65080;50.908;6.916;2022-12-18T08:48:57;-3.00;62.40
76263;DHT22;65080;50.908;6.916;2022-12-18T08:51:28;-3.00;62.40
76263;DHT22;65080;50.908;6.916;2022-12-18T08:53:58;-3.00;62.30
76263;DHT22;65080;50.908;6.916;2022-12-18T08:56:28;-2.90;62.30
76263;DHT22;65080;50.908;6.916;2022-12-18T08:58:57;-2.90;62.40
76263;DHT22;65080;50.908;6.916;2022-12-18T09:01:27;-2.70;62.40
76263;DHT22;65080;50.908;6.916;2022-12-18T09:03:56;-2.70;62.30
76263;DHT22;65080;50.908;6.916;2022-12-18T09:06:28;-2.70;62.30
76263;DHT22;65080;50.908;6.916;2022-12-18T09:08:57;-2.70;62.20
76263;DHT22;65080;50.908;6.916;2022-12-18T09:11:27;-2.60;62.30
76263;DHT22;65080;50.908;6.916;2022-12-18T09:13:57;-2.60;62.20
76263;DHT22;65080;50.908;6.916;2022-12-18T09:16:27;-2.60;62.10
76263;DHT22;65080;50.908;6.916;2022-12-18T09:19:01;-2.50;62.20
76263;DHT22;65080;50.908;6.916;2022-12-18T09:21:31;-2.50;62.20
76263;DHT22;65080;50.908;6.916;2022-12-18T09:24:05;-2.50;62.10
76263;DHT22;65080;50.908;6.916;2022-12-18T09:26:38;-2.40;62.10
76263;DHT22;65080;50.908;6.916;2022-12-18T09:29:09;-2.30;62.20
76263;DHT22;65080;50.908;6.916;2022-12-18T09:31:40;-2.30;62.10
76263;DHT22;65080;50.908;6.916;2022-12-18T09:34:08;-2.30;62.10
76263;DHT22;65080;50.908;6.916;2022-12-18T09:36:38;-2.20;62.20
76263;DHT22;65080;50.908;6.916;2022-12-18T09:39:07;-2.10;62.10
76263;DHT22;65080;50.908;6.916;2022-12-18T09:41:50;-2.00;62.10
76263;DHT22;65080;50.908;6.916;2022-12-18T09:44:23;-2.00;62.00
76263;DHT22;65080;50.908;6.916;2022-12-18T09:47:05;-1.90;62.00
76263;DHT22;65080;50.908;6.916;2022-12-18T09:49:41;-1.80;61.90
76263;DHT22;65080;50.908;6.916;2022-12-18T09:52:14;-1.80;61.70
76263;DHT22;65080;50.908;6.916;2022-12-18T09:54:49;-1.70;61.70
76263;DHT22;65080;50.908;6.916;2022-12-18T09:57:24;-1.70;61.70
76263;DHT22;65080;50.908;6.916;2022-12-18T09:59:57;-1.60;61.70
76263;DHT22;65080;50.908;6.916;2022-12-18T10:02:34;-1.50;61.70
76263;DHT22;65080;50.908;6.916;2022-12-18T10:05:05;-1.50;61.50
76263;DHT22;65080;50.908;6.916;2022-12-18T10:07:59;-1.50;61.50
76263;DHT22;65080;50.908;6.916;2022-12-18T10:10:36;-1.40;61.40
76263;DHT22;65080;50.908;6.916;2022-12-18T10:13:13;-1.30;61.30
76263;DHT22;65080;50.908;6.916;2022-12-18T10:15:54;-1.30;61.20
76263;DHT22;65080;50.908;6.916;2022-12-18T10:18:36;-1.20;61.90
76263;DHT22;65080;50.908;6.916;2022-12-18T10:21:11;-1.20;61.20
76263;DHT22;65080;50.908;6.916;2022-12-18T10:23:50;-1.10;61.10
76263;DHT22;65080;50.908;6.916;2022-12-18T10:26:21;-1.10;61.00
76263;DHT22;65080;50.908;6.916;2022-12-18T10:28:53;-1.00;61.10
76263;DHT22;65080;50.908;6.916;2022-12-18T10:31:32;-1.00;61.00
76263;DHT22;65080;50.908;6.916;2022-12-18T10:34:03;-1.00;60.90
76263;DHT22;65080;50.908;6.916;2022-12-18T10:36:31;-0.90;60.90
76263;DHT22;65080;50.908;6.916;2022-12-18T10:39:17;-0.80;60.90
76263;DHT22;65080;50.908;6.916;2022-12-18T10:41:45;-0.70;60.70
76263;DHT22;65080;50.908;6.916;2022-12-18T10:44:18;-0.70;60.60
76263;DHT22;65080;50.908;6.916;2022-12-18T10:46:53;-0.60;60.50
76263;DHT22;65080;50.908;6.916;2022-12-18T10:49:26;-0.60;60.30
76263;DHT22;65080;50.908;6.916;2022-12-18T10:52:16;-0.70;60.10
76263;DHT22;65080;50.908;6.916;2022-12-18T10:54:49;-0.50;60.20
76263;DHT22;65080;50.908;6.916;2022-12-18T10:57:32;-0.40;60.20
76263;DHT22;65080;50.908;6.916;2022-12-18T11:00:22;-0.30;60.20
76263;DHT22;65080;50.908;6.916;2022-12-18T11:02:52;-0.30;60.00
76263;DHT22;65080;50.908;6.916;2022-12-18T11:05:30;-0.20;60.00
76263;DHT22;65080;50.908;6.916;2022-12-18T11:08:00;-0.20;59.70
76263;DHT22;65080;50.908;6.916;2022-12-18T11:10:32;-0.20;59.70
76263;DHT22;65080;50.908;6.916;2022-12-18T11:13:17;-0.10;59.70
76263;DHT22;65080;50.908;6.916;2022-12-18T11:15:51;-0.10;59.60
76263;DHT22;65080;50.908;6.916;2022-12-18T11:18:23;-0.10;59.50
76263;DHT22;65080;50.908;6.916;2022-12-18T11:20:58;0.00;59.50
76263;DHT22;65080;50.908;6.916;2022-12-18T11:23:34;0.00;59.40
76263;DHT22;65080;50.908;6.916;2022-12-18T11:26:04;0.00;59.30
76263;DHT22;65080;50.908;6.916;2022-12-18T11:28:37;0.00;59.20
76263;DHT22;65080;50.908;6.916;2022-12-18T11:31:24;0.00;59.10
76263;DHT22;65080;50.908;6.916;2022-12-18T11:34:11;0.10;59.10
76263;DHT22;65080;50.908;6.916;2022-12-18T11:37:03;0.10;59.00
76263;DHT22;65080;50.908;6.916;2022-12-18T11:39:36;0.10;59.00
76263;DHT22;65080;50.908;6.916;2022-12-18T11:42:12;0.10;58.90
76263;DHT22;65080;50.908;6.916;2022-12-18T11:44:46;0.10;58.90
76263;DHT22;65080;50.908;6.916;2022-12-18T11:47:25;0.10;58.90
76263;DHT22;65080;50.908;6.916;2022-12-18T11:50:03;0.20;58.90
76263;DHT22;65080;50.908;6.916;2022-12-18T11:52:38;0.20;58.80
76263;DHT22;65080;50.908;6.916;2022-12-18T11:55:16;0.20;58.80
76263;DHT22;65080;50.908;6.916;2022-12-18T11:57:54;0.20;58.70
76263;DHT22;65080;50.908;6.916;2022-12-18T12:00:45;0.20;58.60
76263;DHT22;65080;50.908;6.916;2022-12-18T12:03:43;0.20;58.40
76263;DHT22;65080;50.908;6.916;2022-12-18T12:06:20;0.20;58.40
76263;DHT22;65080;50.908;6.916;2022-12-18T12:09:01;0.30;58.40
76263;DHT22;65080;50.908;6.916;2022-12-18T12:11:39;0.30;58.30
76263;DHT22;65080;50.908;6.916;2022-12-18T12:14:24;0.20;58.20
76263;DHT22;65080;50.908;6.916;2022-12-18T12:17:00;0.30;58.20
76263;DHT22;65080;50.908;6.916;2022-12-18T12:19:37;0.30;58.10
76263;DHT22;65080;50.908;6.916;2022-12-18T12:22:13;0.30;58.10
76263;DHT22;65080;50.908;6.916;2022-12-18T12:25:10;0.30;58.10
76263;DHT22;65080;50.908;6.916;2022-12-18T12:27:50;0.30;58.10
76263;DHT22;65080;50.908;6.916;2022-12-18T12:30:21;0.30;58.10
76263;DHT22;65080;50.908;6.916;2022-12-18T12:33:03;0.30;58.00
76263;DHT22;65080;50.908;6.916;2022-12-18T12:35:44;0.30;58.00
76263;DHT22;65080;50.908;6.916;2022-12-18T12:38:24;0.30;57.90
76263;DHT22;65080;50.908;6.916;2022-12-18T12:40:59;0.30;57.90
76263;DHT22;65080;50.908;6.916;2022-12-18T12:43:35;0.30;58.00
76263;DHT22;65080;50.908;6.916;2022-12-18T12:46:17;0.40;58.20
76263;DHT22;65080;50.908;6.916;2022-12-18T12:48:51;0.40;58.30
76263;DHT22;65080;50.908;6.916;2022-12-18T12:51:23;0.50;58.40
76263;DHT22;65080;50.908;6.916;2022-12-18T12:53:55;0.50;58.10
76263;DHT22;65080;50.908;6.916;2022-12-18T12:56:38;0.50;58.00
76263;DHT22;65080;50.908;6.916;2022-12-18T12:59:15;0.50;58.00
76263;DHT22;65080;50.908;6.916;2022-12-18T13:01:54;0.50;58.00
76263;DHT22;65080;50.908;6.916;2022-12-18T13:04:29;0.50;58.00
76263;DHT22;65080;50.908;6.916;2022-12-18T13:07:14;0.60;58.00
76263;DHT22;65080;50.908;6.916;2022-12-18T13:10:13;0.50;57.80
76263;DHT22;65080;50.908;6.916;2022-12-18T13:13:06;0.50;57.70
76263;DHT22;65080;50.908;6.916;2022-12-18T13:15:41;0.50;57.80
76263;DHT22;65080;50.908;6.916;2022-12-18T13:18:22;0.40;57.70
76263;DHT22;65080;50.908;6.916;2022-12-18T13:21:25;0.50;57.80
76263;DHT22;65080;50.908;6.916;2022-12-18T13:24:16;0.50;57.80
76263;DHT22;65080;50.908;6.916;2022-12-18T13:26:55;0.50;57.70
76263;DHT22;65080;50.908;6.916;2022-12-18T13:29:53;0.50;57.70
76263;DHT22;65080;50.908;6.916;2022-12-18T13:32:23;0.50;57.60
76263;DHT22;65080;50.908;6.916;2022-12-18T13:38:20;0.50;57.60
76263;DHT22;65080;50.908;6.916;2022-12-18T13:40:58;0.50;57.60
76263;DHT22;65080;50.908;6.916;2022-12-18T13:43:33;0.50;57.60
76263;DHT22;65080;50.908;6.916;2022-12-18T13:46:19;0.60;57.60
76263;DHT22;65080;50.908;6.916;2022-12-18T13:49:00;0.60;57.50
76263;DHT22;65080;50.908;6.916;2022-12-18T13:51:32;0.70;57.60
76263;DHT22;65080;50.908;6.916;2022-12-18T13:54:06;0.70;57.50
76263;DHT22;65080;50.908;6.916;2022-12-18T13:56:44;0.80;57.50
76263;DHT22;65080;50.908;6.916;2022-12-18T13:59:17;0.70;57.30
76263;DHT22;65080;50.908;6.916;2022-12-18T14:01:55;0.60;57.30
76263;DHT22;65080;50.908;6.916;2022-12-18T14:04:27;0.60;57.30
76263;DHT22;65080;50.908;6.916;2022-12-18T14:07:01;0.60;57.30
76263;DHT22;65080;50.908;6.916;2022-12-18T14:09:35;0.60;57.30
76263;DHT22;65080;50.908;6.916;2022-12-18T14:12:17;0.60;57.80
76263;DHT22;65080;50.908;6.916;2022-12-18T14:15:14;0.60;57.40
76263;DHT22;65080;50.908;6.916;2022-12-18T14:17:52;0.50;57.20
76263;DHT22;65080;50.908;6.916;2022-12-18T14:20:28;0.50;57.20
76263;DHT22;65080;50.908;6.916;2022-12-18T14:22:59;0.50;57.30
76263;DHT22;65080;50.908;6.916;2022-12-18T14:25:29;0.50;57.40
76263;DHT22;65080;50.908;6.916;2022-12-18T14:28:14;0.50;57.30
76263;DHT22;65080;50.908;6.916;2022-12-18T14:30:52;0.50;57.30
76263;DHT22;65080;50.908;6.916;2022-12-18T14:33:29;0.40;57.30
76263;DHT22;65080;50.908;6.916;2022-12-18T14:35:59;0.40;57.20
76263;DHT22;65080;50.908;6.916;2022-12-18T14:38:30;0.40;57.30
76263;DHT22;65080;50.908;6.916;2022-12-18T14:41:00;0.40;57.30
76263;DHT22;65080;50.908;6.916;2022-12-18T14:43:35;0.40;57.30
76263;DHT22;65080;50.908;6.916;2022-12-18T14:46:06;0.40;57.30
76263;DHT22;65080;50.908;6.916;2022-12-18T14:48:55;0.40;57.30
76263;DHT22;65080;50.908;6.916;2022-12-18T14:51:27;0.40;57.30
76263;DHT22;65080;50.908;6.916;2022-12-18T14:53:58;0.30;57.20
76263;DHT22;65080;50.908;6.916;2022-12-18T14:56:29;0.40;57.40
76263;DHT22;65080;50.908;6.916;2022-12-18T14:59:00;0.30;57.20
76263;DHT22;65080;50.908;6.916;2022-12-18T15:01:31;0.30;57.30
76263;DHT22;65080;50.908;6.916;2022-12-18T15:04:04;0.30;57.30
76263;DHT22;65080;50.908;6.916;2022-12-18T15:06:35;0.30;57.20
76263;DHT22;65080;50.908;6.916;2022-12-18T15:09:21;0.30;57.20
76263;DHT22;65080;50.908;6.916;2022-12-18T15:11:55;0.30;57.30
76263;DHT22;65080;50.908;6.916;2022-12-18T15:14:38;0.30;57.30
76263;DHT22;65080;50.908;6.916;2022-12-18T15:17:15;0.30;57.30
76263;DHT22;65080;50.908;6.916;2022-12-18T15:19:47;0.30;57.30
76263;DHT22;65080;50.908;6.916;2022-12-18T15:22:20;0.30;57.40
76263;DHT22;65080;50.908;6.916;2022-12-18T15:24:52;0.30;57.40
76263;DHT22;65080;50.908;6.916;2022-12-18T15:27:25;0.30;57.30
76263;DHT22;65080;50.908;6.916;2022-12-18T15:30:16;0.30;57.30
76263;DHT22;65080;50.908;6.916;2022-12-18T15:33:22;0.20;57.20
76263;DHT22;65080;50.908;6.916;2022-12-18T15:35:57;0.20;57.20
76263;DHT22;65080;50.908;6.916;2022-12-18T15:38:33;0.20;57.20
76263;DHT22;65080;50.908;6.916;2022-12-18T15:41:01;0.30;57.40
76263;DHT22;65080;50.908;6.916;2022-12-18T15:43:30;0.20;57.20
76263;DHT22;65080;50.908;6.916;2022-12-18T15:46:03;0.20;57.30
76263;DHT22;65080;50.908;6.916;2022-12-18T15:48:39;0.30;57.40
76263;DHT22;65080;50.908;6.916;2022-12-18T15:51:13;0.30;57.40
76263;DHT22;65080;50.908;6.916;2022-12-18T15:53:44;0.30;57.40
76263;DHT22;65080;50.908;6.916;2022-12-18T15:56:18;0.20;57.30
76263;DHT22;65080;50.908;6.916;2022-12-18T15:59:09;0.20;57.50
76263;DHT22;65080;50.908;6.916;2022-12-18T16:01:39;0.20;58.10
76263;DHT22;65080;50.908;6.916;2022-12-18T16:04:12;0.20;57.50
76263;DHT22;65080;50.908;6.916;2022-12-18T16:06:46;0.20;57.50
76263;DHT22;65080;50.908;6.916;2022-12-18T16:09:36;0.10;57.50
76263;DHT22;65080;50.908;6.916;2022-12-18T16:12:19;0.10;57.50
76263;DHT22;65080;50.908;6.916;2022-12-18T16:14:55;0.10;57.50
76263;DHT22;65080;50.908;6.916;2022-12-18T16:17:27;0.10;57.60
76263;DHT22;65080;50.908;6.916;2022-12-18T16:19:57;0.10;57.70
76263;DHT22;65080;50.908;6.916;2022-12-18T16:22:34;0.10;57.70
76263;DHT22;65080;50.908;6.916;2022-12-18T16:25:02;0.10;57.80
76263;DHT22;65080;50.908;6.916;2022-12-18T16:27:32;0.10;57.80
76263;DHT22;65080;50.908;6.916;2022-12-18T16:30:00;0.10;57.90
76263;DHT22;65080;50.908;6.916;2022-12-18T16:32:31;0.20;58.00
76263;DHT22;65080;50.908;6.916;2022-12-18T16:35:08;0.20;58.00
76263;DHT22;65080;50.908;6.916;2022-12-18T16:37:45;0.10;58.00
76263;DHT22;65080;50.908;6.916;2022-12-18T16:40:15;0.10;58.00
76263;DHT22;65080;50.908;6.916;2022-12-18T16:42:45;0.10;58.10
76263;DHT22;65080;50.908;6.916;2022-12-18T16:45:16;0.10;58.10
76263;DHT22;65080;50.908;6.916;2022-12-18T16:47:45;0.10;58.20
76263;DHT22;65080;50.908;6.916;2022-12-18T16:50:14;0.00;58.20
76263;DHT22;65080;50.908;6.916;2022-12-18T16:52:45;0.00;58.20
76263;DHT22;65080;50.908;6.916;2022-12-18T16:55:20;0.00;58.30
76263;DHT22;65080;50.908;6.916;2022-12-18T16:57:49;0.00;58.40
76263;DHT22;65080;50.908;6.916;2022-12-18T17:00:18;0.00;58.40
76263;DHT22;65080;50.908;6.916;2022-12-18T17:02:47;0.00;58.50
76263;DHT22;65080;50.908;6.916;2022-12-18T17:05:18;0.00;59.10
76263;DHT22;65080;50.908;6.916;2022-12-18T17:07:54;0.00;58.50
76263;DHT22;65080;50.908;6.916;2022-12-18T17:10:23;0.00;58.50
76263;DHT22;65080;50.908;6.916;2022-12-18T17:12:53;0.00;58.60
76263;DHT22;65080;50.908;6.916;2022-12-18T17:15:24;0.00;58.70
76263;DHT22;65080;50.908;6.916;2022-12-18T17:17:52;0.00;58.70
76263;DHT22;65080;50.908;6.916;2022-12-18T17:20:23;0.00;58.70
76263;DHT22;65080;50.908;6.916;2022-12-18T17:22:58;0.00;58.70
76263;DHT22;65080;50.908;6.916;2022-12-18T17:25:32;0.00;58.70
76263;DHT22;65080;50.908;6.916;2022-12-18T17:28:00;0.00;58.70
76263;DHT22;65080;50.908;6.916;2022-12-18T17:30:28;0.00;58.80
76263;DHT22;65080;50.908;6.916;2022-12-18T17:32:57;0.00;58.80
76263;DHT22;65080;50.908;6.916;2022-12-18T17:35:25;0.00;58.80
76263;DHT22;65080;50.908;6.916;2022-12-18T17:37:56;0.00;58.80
76263;DHT22;65080;50.908;6.916;2022-12-18T17:40:24;0.00;58.80
76263;DHT22;65080;50.908;6.916;2022-12-18T17:42:52;0.00;58.80
76263;DHT22;65080;50.908;6.916;2022-12-18T17:45:21;0.00;58.80
76263;DHT22;65080;50.908;6.916;2022-12-18T17:47:49;0.10;59.10
76263;DHT22;65080;50.908;6.916;2022-12-18T17:50:25;0.10;59.00
76263;DHT22;65080;50.908;6.916;2022-12-18T17:52:56;0.10;58.90
76263;DHT22;65080;50.908;6.916;2022-12-18T17:55:26;0.00;58.80
76263;DHT22;65080;50.908;6.916;2022-12-18T17:57:55;0.00;58.80
76263;DHT22;65080;50.908;6.916;2022-12-18T18:00:25;0.00;58.90
76263;DHT22;65080;50.908;6.916;2022-12-18T18:02:54;-0.10;58.90
76263;DHT22;65080;50.908;6.916;2022-12-18T18:05:26;-0.10;58.90
76263;DHT22;65080;50.908;6.916;2022-12-18T18:07:56;-0.10;58.90
76263;DHT22;65080;50.908;6.916;2022-12-18T18:10:26;-0.10;59.00
76263;DHT22;65080;50.908;6.916;2022-12-18T18:13:00;-0.10;59.00
76263;DHT22;65080;50.908;6.916;2022-12-18T18:15:54;-0.10;59.00
76263;DHT22;65080;50.908;6.916;2022-12-18T18:18:23;-0.10;58.90
76263;DHT22;65080;50.908;6.916;2022-12-18T18:20:52;-0.10;59.00
76263;DHT22;65080;50.908;6.916;2022-12-18T18:23:24;-0.20;59.20
76263;DHT22;65080;50.908;6.916;2022-12-18T18:25:54;-0.20;59.00
76263;DHT22;65080;50.908;6.916;2022-12-18T18:28:23;-0.20;59.00
76263;DHT22;65080;50.908;6.916;2022-12-18T18:30:51;-0.20;59.10
76263;DHT22;65080;50.908;6.916;2022-12-18T18:33:20;-0.30;59.10
76263;DHT22;65080;50.908;6.916;2022-12-18T18:35:48;-0.20;59.20
76263;DHT22;65080;50.908;6.916;2022-12-18T18:38:23;-0.20;59.20
76263;DHT22;65080;50.908;6.916;2022-12-18T18:40:57;-0.20;59.20
76263;DHT22;65080;50.908;6.916;2022-12-18T18:43:31;-0.20;59.30
76263;DHT22;65080;50.908;6.916;2022-12-18T18:46:01;-0.20;59.30
76263;DHT22;65080;50.908;6.916;2022-12-18T18:48:34;-0.20;59.30
76263;DHT22;65080;50.908;6.916;2022-12-18T18:51:14;-0.10;59.30
76263;DHT22;65080;50.908;6.916;2022-12-18T18:53:53;-0.10;59.30
76263;DHT22;65080;50.908;6.916;2022-12-18T18:56:23;-0.10;59.30
76263;DHT22;65080;50.908;6.916;2022-12-18T18:59:15;-0.10;59.40
76263;DHT22;65080;50.908;6.916;2022-12-18T19:01:45;-0.10;59.30
76263;DHT22;65080;50.908;6.916;2022-12-18T19:04:14;-0.10;59.30
76263;DHT22;65080;50.908;6.916;2022-12-18T19:06:43;-0.10;59.30
76263;DHT22;65080;50.908;6.916;2022-12-18T19:09:16;-0.10;59.30
76263;DHT22;65080;50.908;6.916;2022-12-18T19:11:44;-0.10;59.30
76263;DHT22;65080;50.908;6.916;2022-12-18T19:14:31;-0.10;59.30
76263;DHT22;65080;50.908;6.916;2022-12-18T19:17:24;0.00;59.40
76263;DHT22;65080;50.908;6.916;2022-12-18T19:20:06;0.00;59.40
76263;DHT22;65080;50.908;6.916;2022-12-18T19:22:38;0.00;59.40
76263;DHT22;65080;50.908;6.916;2022-12-18T19:25:09;0.00;59.40
76263;DHT22;65080;50.908;6.916;2022-12-18T19:27:38;0.10;59.50
76263;DHT22;65080;50.908;6.916;2022-12-18T19:30:10;0.10;59.50
76263;DHT22;65080;50.908;6.916;2022-12-18T19:32:42;0.10;59.50
76263;DHT22;65080;50.908;6.916;2022-12-18T19:35:12;0.10;59.50
76263;DHT22;65080;50.908;6.916;2022-12-18T19:37:47;0.20;59.60
76263;DHT22;65080;50.908;6.916;2022-12-18T19:40:17;0.10;59.40
76263;DHT22;65080;50.908;6.916;2022-12-18T19:42:45;0.20;59.50
76263;DHT22;65080;50.908;6.916;2022-12-18T19:45:14;0.20;59.50
76263;DHT22;65080;50.908;6.916;2022-12-18T19:47:52;0.20;59.50
76263;DHT22;65080;50.908;6.916;2022-12-18T19:50:29;0.20;59.50
76263;DHT22;65080;50.908;6.916;2022-12-18T19:53:02;0.20;59.50
76263;DHT22;65080;50.908;6.916;2022-12-18T19:55:40;0.30;59.50
76263;DHT22;65080;50.908;6.916;2022-12-18T19:58:13;0.30;59.50
76263;DHT22;65080;50.908;6.916;2022-12-18T20:00:42;0.20;59.40
76263;DHT22;65080;50.908;6.916;2022-12-18T20:03:13;0.30;59.50